Avalon Airport
YMAV : now visible

Airfield :











YOU CAN JOIN US ON...

 
LOGIN :

Register | Disclaimer

   EN    FR    IT 

 









Legend :    VFR   Marginal VFR   IFR   Intensive IFR   Very Intensive IFR
Visi :
Ceiling :
>= 8 km
>= 3000ft
5 to 8 km
1000 to 3000 ft
1500m to 5 km
500 to 1000 ft
800 to 1500m
200 to 500 ft
< 800m
< 200 ft
Symbols :   Thunderstorms  Fog  Heavy snow  Heavy precipitations  Wind > 20 kt






- Airport Elevation : 35 ft
- IATA code : AVV


YMAV - Avalon

METAR N/A
TAF AMD TAF YMAV
Valid from the 01 at 18:00 until the 02 at 18:00 UTC


011704Z 0118/0218 VRB05KT 9999 -RA FEW010 BKN015
BECMG 0123/0201 23008KT 9999 -SHRA SCT012 BKN020
FM020600 28008KT 9999 NSW SCT025 SCT040
FM021200 33008KT 9999 FEW030
TEMPO 0118/0121 4000 RA BKN008 INTER 0121/0206 5000 SHRA BKN015



MET'MAP, your aeronautical weather chart ! - Copyright ORBIFLY December 2007 - Disclaimer

ORBIFLY MET'MAP TEAM :

Programming & Development : Alexandra Zaïnal
Concept & original design : Baudouin d'Aumeries
Assistance for programming : Marc-Olivier Méhu
Technical & hardware support : Manuel Goepfert

Contact : metmap@orbifly.com




SOURCES & CREDITS :

   NOAA       Earth
Advisory